FLIGHT INFORMATION
Sunwing Airlines

SWG527

At Arrival Gate

CYYZ
 CYUL
DATE: 2020-05-27
GATE:  -
GATE DEPARTURE: 18:44
TAKEOFF: 18:56
DATE: 2020-05-27
GATE:  -
LANDING: 19:49
GATE ARRIVAL: 19:52
FLIGHT DATA
Crew: -HIDDEN-
Speed: 443 kts Altitude: 35000 ft
Stage Length: 274 nm
Route: CYYZ MIGLO CYUL
Block Time: 1.1 Flight Time: 0.9
Fuel Used: 6096 LB
TRACK DATA
50000 FT1000 KTAltitudeSpeed
AIRCRAFT INFORMATION
Aircraft Type: B738SSW
Registration: C-GNCH
SELCAL:  MSN/LN: 39438 / 4816
Operator: SUNWING AIRLINES
Flights: 2 Block Time: 2.2 Flight Time: 1.8
Fuel Used: 12451 LB
  • DEPARTURE INFORMATION
    Date: 2020-05-27
    Airport: CYYZ
    Gate:  -
    Gate Departure: 18:44
    Takeoff: 18:56
    ARRIVAL INFORMATION
    Date: 2020-05-27
    Airport: CYUL
    Gate:  -
    Landing: 19:49
    Gate Arrival: 19:52
  • FLIGHT DATA
    Crew: -HIDDEN-
    Speed: 443 kts Altitude: 35000 ft
    Stage Length: 148 nm
    Route: CYYZ MIGLO CYUL
    Block Time: 1.1 Flight Time: 0.9
    Fuel Used: 6096 LB
  • AIRCRAFT INFORMATION
    Aircraft Type: B738SSW
    Registration: C-GNCH
    SELCAL:  MSN/LN: 39438 / 4816
    Operator: Sunwing Airlines
    Flights: 2 Block Time: 2.2 Flight Time: 1.8
    Fuel Used: 12451 LB

DATALINK LOG | Newest first | Current as of: 2020-07-13 23:51:26
LABEL ID SEQUENCE CONTENT Dn/Up
5Z020027 MAY 20 19:52:44z / FLT DECK GOOD / ACF POS GOOD / GRND SERVICES GOOD / MAINT TROLLING▼ Dn
QD005919:52 6.8▼ Dn
QC585719:49▼ Dn
2U2224CYUL 141100Z 24007KT 30SM FEW250 06/M02 A3026 RMK CI1 CI TR SLP248▲ Up
2S3135CYUL▼ Dn
GA3034ADVANCED GATE ASSIGNMENTS NOT YET AVAILABLE AT THIS AIRPORT▲ Up
GR3034CYUL 19:49 MAAS 00 YP/UM 01/01 WCHR/S/C 00/02/00 HI-VAL NO DIPL/VIP NO▼ Dn
2U1700CYUL 141100Z 24007KT 30SM FEW250 06/M02 A3026 RMK CI1 CI TR SLP248▲ Up
2S2529CYUL▼ Dn
UM0 UM962237UNABLE. CONTINUE PRESENT HEADING▲ Up
DM222227REQUEST DIRECT TO LONNA DUE TO A/C PERF▼ Dn
DM482126SANIN 19:12z FL350 MIGLO 19:20z REEDO M0.77 4.2 -33 307/74 RW24R 19:48z▼ Dn
QB051018:56▼ Dn
QA530218:44 13.1▼ Dn
2U2501CYYZ 141100Z 16004KT 130V200 15SM OVC095 07/M02 A3023 RMK AC8 SLP241▲ Up
2S2801CYYZ▼ Dn
A32608CLEARED TO CYUL VIA DEDKI4 MIGLO HABBS4. SQUAWK 7754.▲ Up
Q02458[LINK ACK]▲ Up
Q02458[LINK TEST]▼ Dn


AIRCRAFT HISTORY
FLIGHT DATE FLIGHT NUMBER ORIGIN DESTINATION ROUTE BLOCK TIME FLIGHT TIME FUEL USED (LB) PILOT
2020-05-27SWG527CYYZ CYUL CYYZ MIGLO CYUL1.10.96096-HIDDEN-
2019-11-21SWG1121CYUL CYYZ 1.20.96356-HIDDEN-